Time;durP1;ratioP1;P1;durP2;ratioP2;P2;SDS_P1;SDS_P2;PMS_P1;PMS_P2;Temp;Humidity;BMP_temperature;BMP_pressure;BME280_temperature;BME280_humidity;BME280_pressure;Samples;Min_cycle;Max_cycle;Signal;HPM_P1;HPM_P2
2023/09/04 00:01:21;;;;;;;2.75;1.90;;;18.30;70.90;;;;;;5036180;28;20037;-72
2023/09/04 00:03:47;;;;;;;2.10;1.90;;;18.20;70.70;;;;;;5035848;28;20060;-72
2023/09/04 00:06:12;;;;;;;2.28;1.63;;;18.10;71.00;;;;;;5035734;28;20022;-72
2023/09/04 00:08:38;;;;;;;2.53;1.60;;;18.20;71.20;;;;;;5035830;28;20033;-73
2023/09/04 00:11:03;;;;;;;3.60;1.88;;;18.20;70.90;;;;;;5035745;28;20442;-72
2023/09/04 00:13:29;;;;;;;2.95;1.70;;;18.10;70.90;;;;;;5035793;28;20037;-74
2023/09/04 00:15:56;;;;;;;1.90;1.77;;;18.20;70.90;;;;;;5035812;28;20017;-72
2023/09/04 00:18:22;;;;;;;2.00;1.88;;;18.20;70.90;;;;;;5035636;28;20033;-72
2023/09/04 00:20:48;;;;;;;4.60;2.00;;;18.20;70.90;;;;;;5035726;28;20024;-73
2023/09/04 00:23:14;;;;;;;2.58;1.85;;;18.20;70.50;;;;;;5035633;28;20025;-72
2023/09/04 00:25:39;;;;;;;2.13;1.92;;;18.20;70.30;;;;;;5035782;28;20025;-73
2023/09/04 00:28:05;;;;;;;2.10;1.90;;;18.20;70.20;;;;;;5035576;28;20428;-74
2023/09/04 00:30:31;;;;;;;2.00;1.90;;;18.20;70.80;;;;;;5035444;28;20021;-72
2023/09/04 00:32:57;;;;;;;2.33;1.90;;;18.20;70.20;;;;;;5035384;28;20044;-72
2023/09/04 00:35:22;;;;;;;2.05;1.85;;;18.20;70.10;;;;;;5035552;28;20159;-72
2023/09/04 00:37:48;;;;;;;2.63;2.25;;;18.20;69.80;;;;;;5035421;28;20068;-73
2023/09/04 00:40:13;;;;;;;2.10;1.90;;;18.20;69.70;;;;;;5035530;28;20029;-72
2023/09/04 00:42:39;;;;;;;2.17;1.98;;;18.20;69.90;;;;;;5035339;28;20053;-74
2023/09/04 00:45:06;;;;;;;2.75;2.25;;;18.10;69.70;;;;;;5035309;28;20017;-71
2023/09/04 00:47:32;;;;;;;2.53;2.20;;;18.10;70.10;;;;;;5035296;28;20028;-74
2023/09/04 00:49:58;;;;;;;3.60;1.98;;;18.10;69.90;;;;;;5035238;28;20029;-72
2023/09/04 00:52:25;;;;;;;2.38;2.17;;;18.10;69.90;;;;;;5034901;28;20118;-72
2023/09/04 00:54:52;;;;;;;2.15;1.95;;;18.10;69.60;;;;;;5034905;28;20116;-71
2023/09/04 00:57:18;;;;;;;2.05;1.90;;;18.10;69.50;;;;;;5035074;28;20021;-73
2023/09/04 00:59:45;;;;;;;2.15;1.95;;;18.10;69.80;;;;;;5035056;28;20064;-72
2023/09/04 01:02:13;;;;;;;2.25;2.05;;;18.10;70.80;;;;;;5034755;28;20476;-72
2023/09/04 01:04:39;;;;;;;4.30;2.10;;;18.10;70.10;;;;;;5034964;28;20075;-72
2023/09/04 01:07:04;;;;;;;1.85;1.73;;;18.20;70.00;;;;;;5034864;28;20379;-72
2023/09/04 01:09:30;;;;;;;2.33;2.13;;;18.20;69.90;;;;;;5034344;28;20553;-72
2023/09/04 01:12:01;;;;;;;1.90;1.70;;;18.20;70.00;;;;;;5034588;28;20550;-72
2023/09/04 01:14:29;;;;;;;2.10;1.88;;;18.20;70.80;;;;;;5034601;28;20380;-72
2023/09/04 01:16:55;;;;;;;2.00;1.80;;;18.10;71.30;;;;;;5034755;28;20036;-71
2023/09/04 01:19:21;;;;;;;1.77;1.55;;;18.10;71.70;;;;;;5034716;28;20124;-72
2023/09/04 01:21:47;;;;;;;4.65;2.28;;;18.10;71.90;;;;;;5034634;28;20503;-72
2023/09/04 01:24:12;;;;;;;2.55;1.95;;;18.10;72.10;;;;;;5034579;28;20093;-72
2023/09/04 01:26:47;;;;;;;2.95;1.70;;;18.00;72.30;;;;;;5034509;28;20021;-72
2023/09/04 01:29:32;;;;;;;1.88;1.77;;;17.90;72.70;;;;;;5034444;28;20033;-72
2023/09/04 01:32:10;;;;;;;2.88;1.95;;;17.90;72.90;;;;;;5034679;28;20042;-71
2023/09/04 01:34:48;;;;;;;3.60;2.28;;;17.80;73.10;;;;;;5034767;28;20045;-71
2023/09/04 01:37:14;;;;;;;2.85;1.90;;;17.80;73.20;;;;;;5034817;28;20541;-72
2023/09/04 01:39:40;;;;;;;2.47;1.95;;;17.70;73.40;;;;;;5016785;28;20106;-72
2023/09/04 01:42:06;;;;;;;2.03;1.85;;;17.70;73.40;;;;;;5033184;28;20523;-72
2023/09/04 01:44:32;;;;;;;1.98;1.88;;;17.80;73.30;;;;;;5033273;28;20123;-72
2023/09/04 01:46:58;;;;;;;2.13;1.73;;;17.80;73.40;;;;;;5032908;28;20071;-72
2023/09/04 01:49:24;;;;;;;3.58;1.90;;;17.80;73.30;;;;;;5033102;28;20025;-72
2023/09/04 01:51:51;;;;;;;2.35;2.15;;;17.80;72.90;;;;;;5032961;28;20037;-72
2023/09/04 01:54:17;;;;;;;2.10;1.83;;;17.70;72.80;;;;;;5033097;28;20056;-72
2023/09/04 01:56:42;;;;;;;1.95;1.83;;;17.80;72.90;;;;;;5032956;28;20099;-72
2023/09/04 01:59:08;;;;;;;1.90;1.80;;;17.70;73.00;;;;;;5032918;28;20026;-72
2023/09/04 02:01:35;;;;;;;3.97;2.08;;;17.70;73.10;;;;;;5032853;28;20021;-71
2023/09/04 02:04:01;;;;;;;2.42;1.85;;;17.70;73.30;;;;;;5033695;28;20024;-72
2023/09/04 02:06:27;;;;;;;2.15;1.95;;;17.60;73.70;;;;;;5033116;28;20391;-72
2023/09/04 02:08:53;;;;;;;2.92;2.08;;;17.50;73.90;;;;;;5033591;28;20022;-72
2023/09/04 02:11:19;;;;;;;2.97;2.00;;;17.50;74.20;;;;;;5033713;28;20056;-72
2023/09/04 02:13:47;;;;;;;3.53;2.10;;;17.50;74.20;;;;;;5033591;28;20022;-74
2023/09/04 02:16:13;;;;;;;2.92;1.98;;;17.40;74.30;;;;;;5033608;28;20417;-72
2023/09/04 02:18:39;;;;;;;2.28;2.08;;;17.40;74.40;;;;;;5033487;28;20029;-72
2023/09/04 02:21:05;;;;;;;3.83;2.22;;;17.40;74.60;;;;;;5033511;28;20459;-72
2023/09/04 02:23:31;;;;;;;2.75;2.25;;;17.30;74.70;;;;;;5033438;28;20033;-73
2023/09/04 02:25:56;;;;;;;6.95;2.63;;;17.30;74.60;;;;;;5033501;28;20361;-72
2023/09/04 02:28:22;;;;;;;2.75;2.13;;;17.30;75.00;;;;;;5033421;28;20030;-72
2023/09/04 02:30:48;;;;;;;2.08;1.90;;;17.30;75.20;;;;;;5033253;28;20028;-72
2023/09/04 02:33:13;;;;;;;3.13;2.30;;;17.30;74.90;;;;;;5033249;28;20041;-73
2023/09/04 02:35:39;;;;;;;2.55;2.35;;;17.30;74.90;;;;;;5043578;28;20025;-72
2023/09/04 02:38:04;;;;;;;2.33;2.13;;;17.30;74.70;;;;;;5052982;28;20020;-73
2023/09/04 02:40:30;;;;;;;2.97;2.47;;;17.40;74.40;;;;;;5052830;28;20040;-73
2023/09/04 02:42:55;;;;;;;2.47;2.28;;;17.40;74.20;;;;;;5053038;28;20028;-73
2023/09/04 02:45:21;;;;;;;3.67;2.70;;;17.40;74.10;;;;;;5052916;28;20048;-73
2023/09/04 02:47:47;;;;;;;2.78;2.40;;;17.40;74.00;;;;;;5053061;28;20036;-73
2023/09/04 02:50:12;;;;;;;2.25;2.05;;;17.50;74.10;;;;;;5052890;28;20027;-74
2023/09/04 02:52:38;;;;;;;2.58;2.20;;;17.50;73.90;;;;;;5052730;28;20075;-72
2023/09/04 02:55:05;;;;;;;2.75;2.13;;;17.40;74.00;;;;;;5052843;28;20025;-73
2023/09/04 02:57:31;;;;;;;2.95;2.05;;;17.30;74.40;;;;;;5052883;28;20112;-72
2023/09/04 02:59:58;;;;;;;2.42;2.10;;;17.30;74.50;;;;;;5052550;28;20025;-73
2023/09/04 03:02:24;;;;;;;2.20;2.03;;;17.20;74.60;;;;;;5052772;28;20021;-73
2023/09/04 03:04:56;;;;;;;3.15;2.10;;;17.20;74.80;;;;;;5052691;28;20032;-73
2023/09/04 03:07:26;;;;;;;1.98;1.80;;;17.10;76.00;;;;;;5052660;28;20127;-72
2023/09/04 03:09:56;;;;;;;2.35;2.15;;;17.00;75.40;;;;;;5052705;28;20060;-73
2023/09/04 03:12:26;;;;;;;4.18;2.20;;;17.00;75.60;;;;;;5052571;28;20522;-72
2023/09/04 03:14:55;;;;;;;2.35;2.13;;;17.00;75.60;;;;;;5052602;28;20029;-73
2023/09/04 03:17:21;;;;;;;2.40;2.20;;;17.00;75.70;;;;;;5052433;28;20052;-72
2023/09/04 03:19:46;;;;;;;3.72;2.00;;;16.90;75.80;;;;;;5051600;28;20040;-72
2023/09/04 03:22:12;;;;;;;2.03;1.92;;;16.90;75.80;;;;;;5052468;28;20056;-73
2023/09/04 03:24:37;;;;;;;2.75;2.33;;;16.90;75.90;;;;;;5051176;28;20079;-72
2023/09/04 03:27:03;;;;;;;3.45;2.72;;;16.80;77.20;;;;;;5052472;28;20602;-72
2023/09/04 03:29:29;;;;;;;3.55;2.45;;;16.70;76.70;;;;;;5052260;28;20082;-72
2023/09/04 03:31:54;;;;;;;2.60;2.40;;;16.70;76.80;;;;;;5052442;28;20040;-72
2023/09/04 03:34:20;;;;;;;2.45;2.17;;;16.70;77.20;;;;;;5052308;28;20060;-72
2023/09/04 03:36:46;;;;;;;3.20;2.50;;;16.60;77.00;;;;;;5052287;28;20021;-71
2023/09/04 03:39:12;;;;;;;2.30;2.10;;;16.50;77.90;;;;;;5052555;28;20366;-72
2023/09/04 03:41:37;;;;;;;7.03;5.25;;;16.50;77.90;;;;;;5052291;28;20025;-71
2023/09/04 03:44:03;;;;;;;17.08;13.90;;;16.50;78.30;;;;;;5052116;28;20025;-71
2023/09/04 03:46:29;;;;;;;3.45;2.50;;;16.50;78.40;;;;;;5050922;28;20479;-71
2023/09/04 03:48:54;;;;;;;3.50;3.20;;;16.40;78.50;;;;;;5052216;28;20531;-71
2023/09/04 03:51:20;;;;;;;2.63;2.40;;;16.40;78.70;;;;;;5052428;28;20495;-72
2023/09/04 03:53:45;;;;;;;4.47;2.92;;;16.40;78.70;;;;;;5052149;28;20033;-72
2023/09/04 03:56:11;;;;;;;3.38;2.40;;;16.40;78.50;;;;;;5052200;28;20108;-72
2023/09/04 03:58:36;;;;;;;2.60;2.40;;;16.40;78.20;;;;;;5052249;28;20021;-72
2023/09/04 04:01:03;;;;;;;2.60;2.40;;;16.40;78.20;;;;;;5052085;28;20071;-72
2023/09/04 04:03:29;;;;;;;3.08;2.65;;;16.40;78.10;;;;;;5052199;28;20040;-73
2023/09/04 04:05:55;;;;;;;3.08;2.63;;;16.40;78.20;;;;;;5052139;28;20471;-72
2023/09/04 04:08:20;;;;;;;4.60;2.60;;;16.40;78.30;;;;;;5052107;28;20099;-73
2023/09/04 04:10:46;;;;;;;5.03;2.50;;;16.40;78.40;;;;;;5050929;28;20076;-73
2023/09/04 04:13:12;;;;;;;2.55;2.22;;;16.30;78.50;;;;;;5050923;28;20516;-73
2023/09/04 04:15:38;;;;;;;4.28;2.72;;;16.30;78.50;;;;;;5050992;28;20022;-73
2023/09/04 04:18:05;;;;;;;5.25;2.40;;;16.30;78.50;;;;;;5051143;28;20029;-73
2023/09/04 04:20:31;;;;;;;2.70;2.50;;;16.30;78.50;;;;;;5052151;28;20033;-73
2023/09/04 04:22:57;;;;;;;2.58;2.38;;;16.40;78.40;;;;;;5052627;28;20036;-72
2023/09/04 04:25:23;;;;;;;2.75;2.45;;;16.30;78.20;;;;;;5060465;28;20021;-73
2023/09/04 04:27:48;;;;;;;3.50;2.50;;;16.30;77.90;;;;;;5052367;28;20071;-73
2023/09/04 04:30:14;;;;;;;5.35;2.45;;;16.30;77.70;;;;;;5053563;28;20478;-73
2023/09/04 04:32:39;;;;;;;2.70;2.20;;;16.20;77.50;;;;;;5056325;28;20479;-73
2023/09/04 04:35:07;;;;;;;5.82;2.55;;;16.20;77.50;;;;;;5055902;28;20494;-73
2023/09/04 04:37:32;;;;;;;3.13;2.22;;;16.20;77.70;;;;;;5055587;28;20499;-72
2023/09/04 04:40:00;;;;;;;4.18;2.90;;;16.10;77.70;;;;;;5055478;28;20096;-73
2023/09/04 04:42:26;;;;;;;4.55;2.50;;;16.10;77.90;;;;;;5054110;28;20058;-73
2023/09/04 04:44:54;;;;;;;4.30;2.92;;;16.10;77.90;;;;;;5054241;28;20025;-77
2023/09/04 04:47:20;;;;;;;4.32;2.72;;;16.00;77.70;;;;;;5055670;28;20032;-73
2023/09/04 04:49:45;;;;;;;4.82;2.83;;;16.00;77.80;;;;;;5055043;28;20025;-73
2023/09/04 04:52:11;;;;;;;2.88;2.58;;;16.00;78.10;;;;;;5055197;28;20060;-73
2023/09/04 04:54:36;;;;;;;3.58;2.70;;;15.90;78.20;;;;;;5055214;28;20031;-73
2023/09/04 04:57:02;;;;;;;3.13;2.72;;;16.00;78.30;;;;;;5053729;28;20098;-72
2023/09/04 04:59:27;;;;;;;3.45;2.75;;;15.90;78.50;;;;;;5060175;28;20059;-73
2023/09/04 05:01:56;;;;;;;2.80;2.50;;;15.80;78.30;;;;;;5055060;28;20555;-72
2023/09/04 05:04:21;;;;;;;4.93;2.55;;;15.80;78.20;;;;;;5053611;28;20031;-73
2023/09/04 05:06:47;;;;;;;2.97;2.67;;;15.80;78.20;;;;;;5054908;28;20402;-73
2023/09/04 05:09:13;;;;;;;4.47;2.58;;;15.80;78.20;;;;;;5046372;28;20047;-72
2023/09/04 05:11:38;;;;;;;2.58;2.38;;;15.80;78.20;;;;;;5034744;28;20056;-73
2023/09/04 05:14:04;;;;;;;3.45;2.50;;;15.80;78.20;;;;;;5032974;28;20116;-73
2023/09/04 05:16:29;;;;;;;3.33;2.40;;;15.80;78.20;;;;;;5034843;28;20476;-73
2023/09/04 05:18:55;;;;;;;2.65;2.45;;;15.70;78.30;;;;;;5033680;28;20483;-73
2023/09/04 05:21:21;;;;;;;2.72;2.47;;;15.80;78.30;;;;;;5034738;28;20056;-73
2023/09/04 05:23:47;;;;;;;3.97;2.58;;;15.70;78.40;;;;;;5034613;28;20034;-73
2023/09/04 05:26:13;;;;;;;2.97;2.42;;;15.80;78.40;;;;;;5034758;28;20021;-73
2023/09/04 05:28:39;;;;;;;2.97;2.70;;;15.80;78.30;;;;;;5033234;28;20446;-74
2023/09/04 05:31:04;;;;;;;2.70;2.50;;;15.90;78.50;;;;;;5034492;28;20068;-72
2023/09/04 05:33:30;;;;;;;8.43;2.75;;;15.90;78.50;;;;;;5034617;28;20049;-72
2023/09/04 05:35:56;;;;;;;6.45;3.00;;;16.00;78.20;;;;;;5033011;28;20026;-72
2023/09/04 05:38:22;;;;;;;5.35;2.88;;;16.00;78.20;;;;;;5034324;28;20057;-73
2023/09/04 05:41:00;;;;;;;6.50;2.40;;;16.00;78.20;;;;;;5034178;28;20021;-74
2023/09/04 05:43:25;;;;;;;2.38;2.20;;;16.10;78.20;;;;;;5033731;28;20056;-72
2023/09/04 05:45:51;;;;;;;4.07;2.78;;;16.30;78.00;;;;;;5034397;28;20049;-73
2023/09/04 05:48:16;;;;;;;5.93;3.28;;;16.40;77.50;;;;;;5034093;28;20411;-75
2023/09/04 05:50:42;;;;;;;4.60;2.75;;;16.50;77.20;;;;;;5034173;28;20498;-74
2023/09/04 05:53:07;;;;;;;3.30;3.00;;;16.60;76.80;;;;;;5034137;28;20468;-73
2023/09/04 05:55:36;;;;;;;3.30;3.00;;;16.50;76.80;;;;;;5034058;28;20032;-72
2023/09/04 05:58:02;;;;;;;3.78;3.00;;;16.60;76.80;;;;;;5034342;28;20482;-72
2023/09/04 06:00:27;;;;;;;3.65;3.00;;;16.70;76.80;;;;;;5033683;28;20056;-71
2023/09/04 06:02:54;;;;;;;3.03;2.72;;;16.70;76.60;;;;;;5034181;28;20100;-71
2023/09/04 06:05:21;;;;;;;3.53;2.65;;;16.80;76.30;;;;;;5033828;28;20475;-74
2023/09/04 06:07:46;;;;;;;3.97;3.30;;;16.90;76.20;;;;;;5032488;28;20483;-72
2023/09/04 06:10:12;;;;;;;5.57;2.90;;;16.90;76.20;;;;;;5033130;28;20041;-71
2023/09/04 06:12:38;;;;;;;7.35;3.58;;;17.00;76.10;;;;;;5033738;28;20080;-75
2023/09/04 06:15:04;;;;;;;8.90;3.17;;;17.10;77.40;;;;;;5032337;28;20440;-75
2023/09/04 06:17:31;;;;;;;6.20;3.20;;;17.30;81.00;;;;;;5033802;28;20049;-76
2023/09/04 06:19:56;;;;;;;4.05;2.90;;;17.70;78.60;;;;;;5038832;28;20063;-75
2023/09/04 06:22:22;;;;;;;4.85;2.97;;;18.00;76.60;;;;;;5033744;28;20025;-78
2023/09/04 06:24:49;;;;;;;5.88;3.10;;;18.20;74.20;;;;;;5032319;28;20075;-76
2023/09/04 06:27:14;;;;;;;4.22;3.20;;;18.40;74.20;;;;;;5032601;28;20121;-79
2023/09/04 06:29:40;;;;;;;5.03;3.30;;;18.60;73.10;;;;;;5033445;28;20075;-79
2023/09/04 06:32:05;;;;;;;5.22;3.58;;;18.70;71.70;;;;;;5033363;28;20032;-78
2023/09/04 06:34:31;;;;;;;3.97;2.97;;;18.90;70.00;;;;;;5033299;28;20380;-75
2023/09/04 06:36:57;;;;;;;3.97;3.58;;;19.00;70.30;;;;;;5033284;28;20103;-75
2023/09/04 06:39:22;;;;;;;3.65;3.20;;;19.10;68.60;;;;;;5032269;28;20112;-75
2023/09/04 06:41:49;;;;;;;6.32;3.40;;;19.10;68.60;;;;;;5031996;28;20029;-75
2023/09/04 06:44:14;;;;;;;5.10;3.60;;;19.10;68.00;;;;;;5032026;28;20456;-76
2023/09/04 06:46:40;;;;;;;5.43;3.60;;;19.10;67.60;;;;;;5032958;28;20052;-77
2023/09/04 06:49:06;;;;;;;5.65;3.85;;;19.00;67.70;;;;;;5033064;28;20100;-75
2023/09/04 06:51:32;;;;;;;4.68;3.40;;;19.10;67.90;;;;;;5031848;28;20033;-76
2023/09/04 06:53:58;;;;;;;7.70;3.75;;;19.10;67.70;;;;;;5033129;28;20474;-75
2023/09/04 06:56:24;;;;;;;4.07;3.28;;;19.20;67.50;;;;;;5032020;28;20488;-77
2023/09/04 06:58:49;;;;;;;3.95;3.53;;;19.20;67.30;;;;;;5032750;28;20032;-76
2023/09/04 07:01:15;;;;;;;5.50;3.28;;;19.20;67.30;;;;;;5031478;28;20017;-79
2023/09/04 07:03:41;;;;;;;3.20;2.90;;;19.40;67.60;;;;;;5033040;28;20166;-75
2023/09/04 07:06:07;;;;;;;3.35;2.75;;;19.40;66.60;;;;;;5031510;28;20033;-75
2023/09/04 07:08:33;;;;;;;3.17;2.90;;;19.50;66.80;;;;;;5031678;28;20030;-75
2023/09/04 07:10:59;;;;;;;3.85;3.00;;;19.70;65.70;;;;;;5033071;28;20068;-76
2023/09/04 07:13:24;;;;;;;3.42;3.13;;;19.60;65.30;;;;;;5031951;28;20149;-76
2023/09/04 07:15:50;;;;;;;6.60;3.17;;;19.70;65.80;;;;;;5032079;28;20535;-78
2023/09/04 07:18:16;;;;;;;4.82;3.10;;;19.70;65.60;;;;;;5032900;28;20104;-77
2023/09/04 07:20:41;;;;;;;4.25;2.47;;;19.70;65.20;;;;;;5031157;28;20014;-78
2023/09/04 07:23:07;;;;;;;4.95;3.30;;;19.70;65.50;;;;;;5031875;28;20112;-77
2023/09/04 07:25:32;;;;;;;6.07;2.85;;;19.80;65.00;;;;;;5032009;28;20072;-78
2023/09/04 07:27:58;;;;;;;3.75;2.80;;;19.70;64.40;;;;;;5032506;28;20030;-76
2023/09/04 07:30:24;;;;;;;3.95;2.53;;;19.80;64.80;;;;;;5031622;28;20032;-76
2023/09/04 07:32:49;;;;;;;5.70;3.00;;;19.80;64.20;;;;;;5031533;28;20491;-76
2023/09/04 07:35:15;;;;;;;3.05;2.67;;;19.80;64.10;;;;;;5032245;28;20017;-77
2023/09/04 07:37:41;;;;;;;3.30;2.72;;;19.80;64.00;;;;;;5036878;28;20021;-76
2023/09/04 07:40:08;;;;;;;3.05;2.83;;;19.80;64.10;;;;;;5031546;28;20052;-76
2023/09/04 07:42:34;;;;;;;6.13;2.92;;;19.90;63.60;;;;;;5031310;28;20125;-77
2023/09/04 07:44:59;;;;;;;3.42;2.70;;;19.90;63.70;;;;;;5031542;28;20025;-76
2023/09/04 07:47:25;;;;;;;4.88;2.88;;;19.90;63.80;;;;;;5030984;28;20022;-76
2023/09/04 07:49:52;;;;;;;7.47;2.78;;;20.00;63.30;;;;;;5031505;28;20075;-76
2023/09/04 07:52:18;;;;;;;3.75;2.90;;;20.10;63.40;;;;;;5015154;28;20069;-77
2023/09/04 07:54:44;;;;;;;4.45;2.50;;;20.20;63.00;;;;;;5031208;28;20060;-77
2023/09/04 07:57:10;;;;;;;4.72;2.50;;;20.30;62.50;;;;;;5031308;28;20566;-76
2023/09/04 07:59:36;;;;;;;2.95;2.63;;;20.30;62.40;;;;;;5031479;28;20061;-76
2023/09/04 08:02:03;;;;;;;3.97;2.30;;;20.40;61.50;;;;;;5030928;28;20021;-77
2023/09/04 08:04:29;;;;;;;5.35;2.60;;;20.40;62.00;;;;;;5032498;28;20098;-76
2023/09/04 08:06:56;;;;;;;3.90;2.70;;;20.50;61.70;;;;;;5034725;28;20119;-77
2023/09/04 08:09:22;;;;;;;3.35;2.80;;;20.60;61.00;;;;;;5034927;28;20045;-78
2023/09/04 08:11:47;;;;;;;4.25;2.40;;;20.60;60.80;;;;;;5036299;28;20041;-78
2023/09/04 08:14:13;;;;;;;2.97;2.50;;;20.70;60.90;;;;;;5035849;28;20021;-75
2023/09/04 08:16:39;;;;;;;2.90;2.60;;;20.70;60.50;;;;;;5034855;28;20028;-75
2023/09/04 08:19:05;;;;;;;3.28;2.58;;;20.70;60.60;;;;;;5035632;28;20113;-74
2023/09/04 08:21:31;;;;;;;5.95;2.88;;;20.80;60.30;;;;;;5037235;28;20079;-73
2023/09/04 08:23:57;;;;;;;8.07;2.70;;;21.00;59.90;;;;;;5052896;28;20029;-75
2023/09/04 08:26:22;;;;;;;4.38;2.30;;;21.00;58.90;;;;;;5035406;28;20036;-73
2023/09/04 08:28:48;;;;;;;4.38;2.42;;;21.10;59.00;;;;;;5035176;28;20033;-75
2023/09/04 08:31:14;;;;;;;3.83;2.58;;;21.10;58.20;;;;;;5035308;28;20111;-74
2023/09/04 08:33:39;;;;;;;2.70;2.47;;;21.20;57.50;;;;;;5035576;28;20025;-74
2023/09/04 08:36:05;;;;;;;2.67;2.47;;;21.20;57.70;;;;;;5035239;28;20100;-75
2023/09/04 08:38:31;;;;;;;2.53;2.33;;;21.30;57.10;;;;;;5035239;28;20056;-74
2023/09/04 08:41:04;;;;;;;3.03;2.40;;;21.30;57.30;;;;;;5034177;28;20045;-76
2023/09/04 08:43:31;;;;;;;2.92;2.38;;;21.20;56.20;;;;;;5035381;28;20022;-75
2023/09/04 08:46:02;;;;;;;5.53;2.00;;;21.30;55.50;;;;;;5035347;28;20029;-74
2023/09/04 08:48:32;;;;;;;2.60;2.40;;;21.30;55.40;;;;;;5034336;28;20155;-73
2023/09/04 08:50:58;;;;;;;3.88;2.58;;;21.40;54.90;;;;;;5034213;28;20032;-74
2023/09/04 08:53:25;;;;;;;2.92;2.40;;;21.50;54.80;;;;;;5034176;28;20033;-74
2023/09/04 08:55:50;;;;;;;4.00;2.30;;;21.60;52.80;;;;;;5038930;28;20048;-74
2023/09/04 08:58:16;;;;;;;3.22;2.28;;;21.60;53.10;;;;;;5034452;28;20479;-73
2023/09/04 09:00:45;;;;;;;4.03;2.28;;;21.80;53.60;;;;;;5034229;28;20032;-74
2023/09/04 09:03:11;;;;;;;2.92;2.03;;;21.90;52.50;;;;;;5033197;28;20029;-74
2023/09/04 09:05:37;;;;;;;2.63;2.38;;;22.00;51.70;;;;;;5035170;28;20100;-74
2023/09/04 09:08:06;;;;;;;2.08;1.88;;;22.10;50.50;;;;;;5033903;28;20125;-74
2023/09/04 09:10:32;;;;;;;3.65;1.90;;;22.30;51.30;;;;;;5033661;28;20041;-75
2023/09/04 09:12:58;;;;;;;2.38;2.17;;;22.40;50.50;;;;;;5033402;28;20083;-74
2023/09/04 09:15:25;;;;;;;4.50;2.15;;;22.40;50.00;;;;;;5033647;28;20021;-74
2023/09/04 09:17:56;;;;;;;2.40;2.20;;;22.60;49.90;;;;;;5038574;28;20033;-72
2023/09/04 09:20:33;;;;;;;2.55;2.05;;;22.60;49.10;;;;;;5044978;28;20057;-73
2023/09/04 09:22:58;;;;;;;2.80;2.03;;;22.70;49.00;;;;;;5033192;28;20029;-72
2023/09/04 09:25:24;;;;;;;3.25;2.10;;;22.80;49.40;;;;;;5034603;28;20040;-72
2023/09/04 09:27:50;;;;;;;3.35;2.30;;;22.80;47.30;;;;;;5034510;28;20452;-75
2023/09/04 09:30:16;;;;;;;5.60;1.90;;;22.90;47.30;;;;;;5032807;28;20442;-74
2023/09/04 09:32:42;;;;;;;4.80;1.90;;;22.90;46.10;;;;;;5033645;28;20480;-73
2023/09/04 09:35:09;;;;;;;1.88;1.75;;;22.90;45.60;;;;;;5033022;28;20025;-74
2023/09/04 09:37:35;;;;;;;3.75;2.17;;;23.10;46.00;;;;;;5033144;28;20498;-73
2023/09/04 09:40:00;;;;;;;2.70;2.05;;;23.30;44.50;;;;;;5033047;28;20065;-75
2023/09/04 09:42:26;;;;;;;2.25;1.90;;;23.40;44.00;;;;;;5033307;28;20474;-72
2023/09/04 09:44:52;;;;;;;3.47;2.40;;;23.40;44.00;;;;;;5032420;28;20074;-72
2023/09/04 09:47:18;;;;;;;2.10;1.80;;;23.60;44.00;;;;;;5015304;28;20036;-73
2023/09/04 09:49:45;;;;;;;2.65;2.00;;;23.70;43.00;;;;;;5013834;28;20022;-73
2023/09/04 09:52:11;;;;;;;2.05;1.85;;;23.90;42.60;;;;;;5013585;28;20214;-73
2023/09/04 09:54:39;;;;;;;2.22;2.03;;;24.00;42.00;;;;;;5032318;28;20029;-72
2023/09/04 09:57:11;;;;;;;4.03;1.98;;;24.10;40.50;;;;;;5033975;28;20490;-73
2023/09/04 09:59:40;;;;;;;3.60;2.20;;;24.20;39.30;;;;;;5032370;28;20357;-73
2023/09/04 10:02:06;;;;;;;2.50;1.90;;;24.30;38.40;;;;;;5033706;28;20052;-74
2023/09/04 10:04:33;;;;;;;2.90;1.92;;;24.40;37.50;;;;;;5032374;28;20479;-73
2023/09/04 10:07:01;;;;;;;5.97;2.15;;;24.50;37.20;;;;;;5032395;28;20106;-72
2023/09/04 10:09:28;;;;;;;7.65;2.20;;;24.50;36.90;;;;;;5032651;28;20071;-75
2023/09/04 10:12:15;;;;;;;2.05;1.83;;;24.50;37.00;;;;;;5016261;28;20103;-73
2023/09/04 10:14:42;;;;;;;2.22;2.00;;;24.50;36.60;;;;;;5034213;28;20033;-74
2023/09/04 10:17:16;;;;;;;1.88;1.67;;;24.60;36.70;;;;;;5034656;28;20033;-75
2023/09/04 10:19:44;;;;;;;2.67;1.92;;;24.60;36.30;;;;;;5031880;28;20036;-74
2023/09/04 10:22:20;;;;;;;3.20;1.98;;;24.80;36.70;;;;;;5031452;28;20045;-74
2023/09/04 10:25:00;;;;;;;1.92;1.48;;;24.80;35.30;;;;;;5032345;28;20061;-74
2023/09/04 10:27:28;;;;;;;3.42;2.25;;;24.90;35.20;;;;;;5032038;28;20037;-74
2023/09/04 10:30:05;;;;;;;4.20;2.00;;;25.00;35.00;;;;;;5032370;28;20418;-75
2023/09/04 10:32:30;;;;;;;3.95;2.10;;;25.00;34.60;;;;;;5031725;28;20391;-75
2023/09/04 10:34:56;;;;;;;2.58;2.22;;;25.00;33.80;;;;;;5032044;28;20036;-74
2023/09/04 10:37:26;;;;;;;5.65;2.13;;;25.10;33.70;;;;;;5032171;28;20047;-73
2023/09/04 10:39:53;;;;;;;4.50;2.15;;;25.20;33.00;;;;;;5032911;28;20028;-73
2023/09/04 10:42:20;;;;;;;2.15;1.70;;;25.30;31.80;;;;;;5032797;28;20056;-74
2023/09/04 10:44:45;;;;;;;2.95;1.80;;;25.40;31.90;;;;;;5032106;28;20505;-74
2023/09/04 10:47:12;;;;;;;6.22;1.85;;;25.60;30.30;;;;;;5032117;28;20025;-72
2023/09/04 10:49:37;;;;;;;2.20;1.95;;;25.80;30.60;;;;;;5031957;28;20036;-73
2023/09/04 10:52:05;;;;;;;3.45;2.25;;;25.90;30.60;;;;;;5031997;28;20637;-73
2023/09/04 10:54:30;;;;;;;2.10;1.70;;;26.10;31.10;;;;;;5031883;28;20021;-74
2023/09/04 10:56:58;;;;;;;2.95;1.80;;;26.20;29.80;;;;;;5031716;28;20036;-73
2023/09/04 10:59:25;;;;;;;2.20;1.98;;;26.10;29.30;;;;;;5031664;28;20553;-73
2023/09/04 11:01:52;;;;;;;4.68;2.10;;;26.10;30.10;;;;;;5031878;28;20029;-72
2023/09/04 11:04:36;;;;;;;2.65;1.95;;;26.20;29.20;;;;;;5031718;28;20022;-72
2023/09/04 11:07:20;;;;;;;5.93;2.03;;;26.30;29.30;;;;;;5031595;28;20525;-72
2023/09/04 11:09:53;;;;;;;1.98;1.88;;;26.40;28.90;;;;;;5031480;28;20162;-73
2023/09/04 11:12:20;;;;;;;3.88;1.80;;;26.70;28.80;;;;;;5031831;28;20037;-74
2023/09/04 11:14:53;;;;;;;3.30;2.10;;;26.80;27.20;;;;;;5031927;28;20029;-74
2023/09/04 11:17:26;;;;;;;3.10;1.50;;;26.90;27.80;;;;;;5031643;28;20040;-74
2023/09/04 11:19:52;;;;;;;3.47;2.00;;;27.10;28.70;;;;;;5031871;28;20017;-73
2023/09/04 11:22:24;;;;;;;3.17;1.73;;;27.10;28.70;;;;;;5031793;28;20021;-74
2023/09/04 11:24:53;;;;;;;5.55;2.40;;;27.20;28.30;;;;;;5031649;28;20084;-74
2023/09/04 11:27:22;;;;;;;1.98;1.55;;;27.40;29.50;;;;;;5031359;28;20021;-72
2023/09/04 11:29:48;;;;;;;3.50;2.03;;;27.60;30.20;;;;;;5031698;28;20029;-74
2023/09/04 11:32:16;;;;;;;2.42;1.95;;;27.90;28.40;;;;;;5031181;28;20083;-73
2023/09/04 11:34:43;;;;;;;2.63;2.13;;;28.30;26.40;;;;;;5031668;28;20028;-73
2023/09/04 11:37:09;;;;;;;2.67;1.90;;;28.70;24.80;;;;;;5032942;28;20075;-74
2023/09/04 11:39:35;;;;;;;2.42;1.88;;;29.00;24.50;;;;;;5015148;28;20032;-74
2023/09/04 11:42:01;;;;;;;6.75;2.10;;;29.30;23.00;;;;;;5036451;28;20138;-78
2023/09/04 11:44:29;;;;;;;2.92;1.85;;;29.50;23.90;;;;;;5055520;28;20105;-78
2023/09/04 11:46:56;;;;;;;2.00;1.60;;;29.70;24.80;;;;;;5055016;28;20029;-74
2023/09/04 11:49:21;;;;;;;4.28;2.00;;;29.40;25.10;;;;;;5055283;28;20032;-79
2023/09/04 11:51:47;;;;;;;3.80;1.98;;;29.50;25.30;;;;;;5053750;28;20029;-79
2023/09/04 11:54:13;;;;;;;6.03;2.42;;;29.50;25.20;;;;;;5035359;28;20056;-79
2023/09/04 11:56:40;;;;;;;2.28;2.08;;;29.70;25.50;;;;;;5034429;28;20071;-77
2023/09/04 11:59:05;;;;;;;4.70;2.10;;;29.80;23.80;;;;;;5034971;28;20025;-79
2023/09/04 12:01:31;;;;;;;2.67;1.75;;;30.00;25.10;;;;;;5035207;28;20071;-72
2023/09/04 12:03:57;;;;;;;3.65;1.70;;;30.10;24.00;;;;;;5036584;28;20049;-82
2023/09/04 12:06:27;;;;;;;2.80;2.13;;;30.00;24.30;;;;;;5019496;28;20116;-77
2023/09/04 12:08:53;;;;;;;3.53;2.00;;;30.20;24.00;;;;;;5037558;28;20134;-81
2023/09/04 12:11:21;;;;;;;2.25;1.90;;;30.20;21.90;;;;;;5036984;28;20507;-80
2023/09/04 12:13:47;;;;;;;5.55;2.13;;;30.20;23.80;;;;;;5041758;28;20116;-78
2023/09/04 12:16:16;;;;;;;4.03;2.13;;;30.20;23.50;;;;;;5041389;28;20514;-80
2023/09/04 12:18:42;;;;;;;4.97;2.17;;;29.90;23.70;;;;;;5040988;28;20515;-81
2023/09/04 12:21:09;;;;;;;2.20;2.00;;;29.90;25.50;;;;;;5036702;28;20029;-82
2023/09/04 12:23:45;;;;;;;4.20;2.17;;;29.80;25.10;;;;;;5036730;28;20029;-80
2023/09/04 12:26:15;;;;;;;2.95;2.15;;;29.90;24.50;;;;;;5037095;28;20034;-80
2023/09/04 12:28:42;;;;;;;5.88;2.35;;;30.00;23.90;;;;;;5037056;28;20021;-78
2023/09/04 12:31:10;;;;;;;2.55;1.80;;;30.30;24.10;;;;;;5036998;28;20029;-79
2023/09/04 12:33:42;;;;;;;5.07;2.10;;;30.40;22.50;;;;;;5037216;28;20036;-79
2023/09/04 12:36:11;;;;;;;3.92;2.25;;;30.60;22.90;;;;;;5038291;28;20021;-80
2023/09/04 12:38:38;;;;;;;2.83;2.35;;;30.70;23.30;;;;;;5036841;28;20075;-80
2023/09/04 12:41:04;;;;;;;2.50;2.30;;;30.80;22.30;;;;;;5036041;28;20030;-79
2023/09/04 12:43:30;;;;;;;3.28;2.35;;;31.00;22.30;;;;;;5035440;28;20491;-72
2023/09/04 12:45:56;;;;;;;3.80;2.17;;;30.90;19.80;;;;;;5035398;28;20029;-75